createdAt,value
2022-12-11T00:01:15.210Z,100.00
2022-12-11T00:03:45.000Z,100.00
2022-12-11T00:06:15.884Z,100.00
2022-12-11T00:08:44.507Z,100.00
2022-12-11T00:11:15.291Z,100.00
2022-12-11T00:13:44.369Z,100.00
2022-12-11T00:16:12.803Z,100.00
2022-12-11T00:18:41.584Z,100.00
2022-12-11T00:21:14.707Z,100.00
2022-12-11T00:23:43.243Z,100.00
2022-12-11T00:26:15.369Z,100.00
2022-12-11T00:28:44.977Z,100.00
2022-12-11T00:31:15.772Z,100.00
2022-12-11T00:33:44.814Z,100.00
2022-12-11T00:36:16.836Z,100.00
2022-12-11T00:38:45.680Z,100.00
2022-12-11T00:41:14.052Z,100.00
2022-12-11T00:43:42.815Z,100.00
2022-12-11T00:46:11.688Z,100.00
2022-12-11T00:48:40.339Z,100.00
2022-12-11T00:51:09.143Z,100.00
2022-12-11T00:53:39.465Z,100.00
2022-12-11T00:56:13.585Z,100.00
2022-12-11T00:58:41.998Z,100.00
2022-12-11T01:01:12.098Z,100.00
2022-12-11T01:03:40.852Z,100.00
2022-12-11T01:06:09.709Z,100.00
2022-12-11T01:08:39.470Z,100.00
2022-12-11T01:11:09.292Z,100.00
2022-12-11T01:13:38.717Z,100.00
2022-12-11T01:16:08.959Z,100.00
2022-12-11T01:18:37.792Z,100.00
2022-12-11T01:21:08.034Z,100.00
2022-12-11T01:23:36.805Z,100.00
2022-12-11T01:26:11.588Z,100.00
2022-12-11T01:28:40.346Z,100.00
2022-12-11T01:31:09.929Z,100.00
2022-12-11T01:33:39.167Z,100.00
2022-12-11T01:36:10.126Z,100.00
2022-12-11T01:38:38.677Z,100.00
2022-12-11T01:41:07.263Z,100.00
2022-12-11T01:43:37.339Z,100.00
2022-12-11T01:46:06.075Z,100.00
2022-12-11T01:48:39.244Z,100.00
2022-12-11T01:51:10.642Z,100.00
2022-12-11T01:53:44.586Z,100.00
2022-12-11T01:56:13.206Z,100.00
2022-12-11T01:58:48.587Z,100.00
2022-12-11T02:01:23.410Z,100.00
2022-12-11T02:03:52.155Z,100.00
2022-12-11T02:06:36.793Z,100.00
2022-12-11T02:09:08.830Z,100.00
2022-12-11T02:11:48.592Z,100.00
2022-12-11T02:14:27.930Z,100.00
2022-12-11T02:17:03.343Z,100.00
2022-12-11T02:19:51.914Z,100.00
2022-12-11T02:22:29.674Z,100.00
2022-12-11T02:25:10.896Z,100.00
2022-12-11T02:27:45.166Z,100.00
2022-12-11T02:30:16.530Z,100.00
2022-12-11T02:32:49.617Z,100.00
2022-12-11T02:35:22.666Z,100.00
2022-12-11T02:37:57.525Z,100.00
2022-12-11T02:40:31.656Z,100.00
2022-12-11T02:43:03.868Z,100.00
2022-12-11T02:45:35.835Z,100.00
2022-12-11T02:48:06.655Z,100.00
2022-12-11T02:50:37.738Z,100.00
2022-12-11T02:53:08.341Z,100.00
2022-12-11T02:55:39.450Z,100.00
2022-12-11T02:58:13.882Z,100.00
2022-12-11T03:00:45.209Z,100.00
2022-12-11T03:03:14.010Z,100.00
2022-12-11T03:05:43.667Z,100.00
2022-12-11T03:08:12.149Z,100.00
2022-12-11T03:10:40.585Z,100.00
2022-12-11T03:13:09.101Z,100.00
2022-12-11T03:15:48.909Z,100.00
2022-12-11T03:18:22.339Z,100.00
2022-12-11T03:21:02.110Z,100.00
2022-12-11T03:23:35.760Z,100.00
2022-12-11T03:26:06.648Z,100.00
2022-12-11T03:28:42.955Z,100.00
2022-12-11T03:31:15.530Z,100.00
2022-12-11T03:33:47.603Z,100.00
2022-12-11T03:36:22.003Z,100.00
2022-12-11T03:38:55.200Z,100.00
2022-12-11T03:41:26.837Z,100.00
2022-12-11T03:43:58.373Z,100.00
2022-12-11T03:46:32.532Z,100.00
2022-12-11T03:49:06.642Z,100.00
2022-12-11T03:51:36.701Z,100.00
2022-12-11T03:54:05.693Z,100.00
2022-12-11T03:56:37.969Z,100.00
2022-12-11T03:59:06.410Z,100.00
2022-12-11T04:01:36.320Z,100.00
2022-12-11T04:04:05.095Z,100.00
2022-12-11T04:06:33.526Z,100.00
2022-12-11T04:09:01.915Z,100.00
2022-12-11T04:11:36.161Z,100.00
2022-12-11T04:18:11.402Z,100.00
2022-12-11T04:20:57.049Z,100.00
2022-12-11T04:23:43.046Z,100.00
2022-12-11T04:26:13.892Z,100.00
2022-12-11T04:28:43.392Z,100.00
2022-12-11T04:31:13.962Z,100.00
2022-12-11T04:33:43.905Z,100.00
2022-12-11T04:36:13.154Z,100.00
2022-12-11T04:38:42.060Z,100.00
2022-12-11T04:41:13.891Z,100.00
2022-12-11T04:43:45.186Z,100.00
2022-12-11T04:46:16.498Z,100.00
2022-12-11T04:48:47.851Z,100.00
2022-12-11T04:51:18.847Z,100.00
2022-12-11T04:53:47.585Z,100.00
2022-12-11T04:56:17.657Z,100.00
2022-12-11T04:58:46.791Z,100.00
2022-12-11T05:01:17.449Z,100.00
2022-12-11T05:03:48.013Z,100.00
2022-12-11T05:06:16.478Z,100.00
2022-12-11T05:08:45.179Z,100.00
2022-12-11T05:11:15.865Z,100.00
2022-12-11T05:13:45.373Z,100.00
2022-12-11T05:16:16.318Z,100.00
2022-12-11T05:18:44.910Z,100.00
2022-12-11T05:21:16.144Z,100.00
2022-12-11T05:23:44.922Z,100.00
2022-12-11T05:26:16.203Z,100.00
2022-12-11T05:28:44.956Z,100.00
2022-12-11T05:31:15.588Z,100.00
2022-12-11T05:33:44.292Z,100.00
2022-12-11T05:36:18.367Z,100.00
2022-12-11T05:38:47.584Z,100.00
2022-12-11T05:41:18.799Z,100.00
2022-12-11T05:43:47.300Z,100.00
2022-12-11T05:46:17.831Z,100.00
2022-12-11T05:48:47.909Z,100.00
2022-12-11T05:51:18.675Z,100.00
2022-12-11T05:53:49.167Z,100.00
2022-12-11T05:56:20.564Z,100.00
2022-12-11T05:58:50.205Z,100.00
2022-12-11T06:01:21.396Z,100.00
2022-12-11T06:03:49.877Z,100.00
2022-12-11T06:06:19.670Z,100.00
2022-12-11T06:08:50.789Z,100.00
2022-12-11T06:11:23.752Z,100.00
2022-12-11T06:13:53.365Z,100.00
2022-12-11T06:16:22.651Z,100.00
2022-12-11T06:18:54.682Z,100.00
2022-12-11T06:21:30.357Z,100.00
2022-12-11T06:24:00.749Z,100.00
2022-12-11T06:26:29.678Z,100.00
2022-12-11T06:28:58.115Z,100.00
2022-12-11T06:31:26.580Z,100.00
2022-12-11T06:33:55.295Z,100.00
2022-12-11T06:36:27.299Z,100.00
2022-12-11T06:38:56.330Z,100.00
2022-12-11T06:41:24.700Z,100.00
2022-12-11T06:43:53.035Z,100.00
2022-12-11T06:46:21.576Z,100.00
2022-12-11T06:48:50.330Z,100.00
2022-12-11T06:51:20.629Z,100.00
2022-12-11T06:53:53.971Z,100.00
2022-12-11T06:56:23.416Z,100.00
2022-12-11T06:58:52.005Z,100.00
2022-12-11T07:01:23.588Z,100.00
2022-12-11T07:03:53.773Z,100.00
2022-12-11T07:06:22.879Z,100.00
2022-12-11T07:08:52.825Z,100.00
2022-12-11T07:11:22.277Z,100.00
2022-12-11T07:13:50.728Z,100.00
2022-12-11T07:16:19.947Z,100.00
2022-12-11T07:18:50.039Z,100.00
2022-12-11T07:21:19.343Z,100.00
2022-12-11T07:23:48.062Z,100.00
2022-12-11T07:26:19.770Z,100.00
2022-12-11T07:32:36.283Z,100.00
2022-12-11T07:35:05.476Z,100.00
2022-12-11T07:37:33.974Z,100.00
2022-12-11T07:40:02.515Z,100.00
2022-12-11T07:42:32.256Z,100.00
2022-12-11T07:45:00.830Z,100.00
2022-12-11T07:47:29.203Z,100.00
2022-12-11T07:49:57.694Z,100.00
2022-12-11T07:52:26.300Z,100.00
2022-12-11T07:54:54.742Z,100.00
2022-12-11T07:57:23.105Z,100.00
2022-12-11T07:59:52.856Z,100.00
2022-12-11T08:02:21.951Z,100.00
2022-12-11T08:04:50.504Z,100.00
2022-12-11T08:07:18.897Z,100.00
2022-12-11T08:09:47.320Z,100.00
2022-12-11T08:12:15.706Z,100.00
2022-12-11T08:14:44.110Z,100.00
2022-12-11T08:17:14.041Z,100.00
2022-12-11T08:23:30.367Z,100.00
2022-12-11T08:25:58.731Z,100.00
2022-12-11T08:28:27.462Z,100.00
2022-12-11T08:30:55.888Z,100.00
2022-12-11T08:33:25.633Z,100.00
2022-12-11T08:35:54.023Z,100.00
2022-12-11T08:38:25.617Z,100.00
2022-12-11T08:40:54.238Z,100.00
2022-12-11T08:43:22.604Z,100.00
2022-12-11T08:45:51.208Z,100.00
2022-12-11T08:48:20.784Z,100.00
2022-12-11T08:50:50.641Z,100.00
2022-12-11T08:53:19.040Z,100.00
2022-12-11T08:55:47.401Z,100.00
2022-12-11T08:58:15.825Z,100.00
2022-12-11T09:00:44.189Z,100.00
2022-12-11T09:03:13.055Z,100.00
2022-12-11T09:05:41.538Z,100.00
2022-12-11T09:08:11.363Z,100.00
2022-12-11T09:10:39.778Z,100.00
2022-12-11T09:13:08.226Z,100.00
2022-12-11T09:24:20.454Z,93.45
2022-12-11T09:26:48.882Z,96.35
2022-12-11T09:29:17.270Z,100.00
2022-12-11T09:31:46.405Z,100.00
2022-12-11T09:34:16.006Z,100.00
2022-12-11T09:36:45.245Z,100.00
2022-12-11T09:39:15.335Z,100.00
2022-12-11T09:41:56.479Z,100.00
2022-12-11T09:44:45.565Z,100.00
2022-12-11T09:47:25.074Z,100.00
2022-12-11T09:50:04.213Z,100.00
2022-12-11T09:52:35.753Z,100.00
2022-12-11T09:55:14.178Z,100.00
2022-12-11T09:57:58.052Z,100.00
2022-12-11T10:00:33.189Z,100.00
2022-12-11T10:03:28.030Z,92.48
2022-12-11T10:06:05.060Z,82.30
2022-12-11T10:08:40.128Z,80.83
2022-12-11T10:11:27.075Z,84.60
2022-12-11T10:14:07.582Z,87.76
2022-12-11T10:16:38.928Z,86.52
2022-12-11T10:19:10.269Z,87.62
2022-12-11T10:21:42.417Z,90.68
2022-12-11T10:24:34.649Z,93.54
2022-12-11T10:27:16.439Z,93.43
2022-12-11T10:29:46.514Z,90.77
2022-12-11T10:32:24.549Z,89.19
2022-12-11T10:34:58.693Z,93.61
2022-12-11T10:37:27.194Z,96.92
2022-12-11T10:39:55.640Z,99.90
2022-12-11T10:42:24.459Z,100.00
2022-12-11T10:44:59.330Z,100.00
2022-12-11T10:47:28.327Z,100.00
2022-12-11T10:49:58.916Z,99.90
2022-12-11T10:52:31.520Z,97.76
2022-12-11T10:55:04.052Z,96.37
2022-12-11T10:57:36.774Z,96.83
2022-12-11T11:00:27.545Z,97.12
2022-12-11T11:02:57.318Z,97.07
2022-12-11T11:05:30.684Z,93.41
2022-12-11T11:08:14.872Z,81.50
2022-12-11T11:10:56.608Z,75.57
2022-12-11T11:13:32.636Z,67.07
2022-12-11T11:16:05.029Z,60.63
2022-12-11T11:18:34.663Z,58.15
2022-12-11T11:21:03.750Z,58.28
2022-12-11T11:23:32.509Z,58.65
2022-12-11T11:26:03.046Z,58.37
2022-12-11T11:28:37.106Z,57.89
2022-12-11T11:31:10.144Z,57.21
2022-12-11T11:33:49.252Z,59.79
2022-12-11T11:36:22.773Z,61.90
2022-12-11T11:39:14.290Z,64.98
2022-12-11T11:41:51.525Z,63.61
2022-12-11T11:44:26.334Z,59.57
2022-12-11T11:47:03.364Z,58.68
2022-12-11T11:49:45.845Z,58.78
2022-12-11T11:52:20.395Z,56.15
2022-12-11T11:55:00.716Z,56.23
2022-12-11T11:57:36.558Z,56.21
2022-12-11T12:00:11.394Z,54.23
2022-12-11T12:02:47.045Z,53.30
2022-12-11T12:05:16.753Z,53.37
2022-12-11T12:07:52.655Z,59.94
2022-12-11T12:10:29.125Z,66.35
2022-12-11T12:13:02.747Z,68.37
2022-12-11T12:15:39.372Z,70.95
2022-12-11T12:18:18.569Z,73.81
2022-12-11T12:20:56.151Z,73.94
2022-12-11T12:23:42.500Z,72.36
2022-12-11T12:26:18.921Z,70.45
2022-12-11T12:29:00.497Z,66.30
2022-12-11T12:31:56.116Z,68.63
2022-12-11T12:52:19.132Z,64.80
2022-12-11T12:55:06.206Z,61.17
2022-12-11T12:57:36.033Z,60.38
2022-12-11T13:00:11.048Z,62.35
2022-12-11T13:02:50.481Z,66.22
2022-12-11T13:05:25.195Z,69.28
2022-12-11T13:07:57.805Z,73.73
2022-12-11T13:10:30.925Z,75.97
2022-12-11T13:13:00.197Z,78.40
2022-12-11T13:15:35.560Z,82.50
2022-12-11T13:18:13.886Z,84.74
2022-12-11T13:20:50.925Z,85.33
2022-12-11T13:23:28.668Z,84.09
2022-12-11T13:25:59.628Z,83.58
2022-12-11T13:28:33.194Z,87.58
2022-12-11T13:31:29.215Z,91.27
2022-12-11T13:33:59.499Z,90.33
2022-12-11T13:36:32.721Z,86.13
2022-12-11T13:39:07.851Z,82.19
2022-12-11T13:41:38.496Z,81.88
2022-12-11T13:44:09.235Z,83.99
2022-12-11T13:46:40.292Z,86.09
2022-12-11T13:49:21.561Z,88.98
2022-12-11T13:51:55.630Z,89.54
2022-12-11T13:54:26.324Z,89.63
2022-12-11T13:57:00.847Z,92.24
2022-12-11T13:59:32.646Z,93.05
2022-12-11T14:02:11.531Z,94.75
2022-12-11T14:04:44.292Z,97.23
2022-12-11T14:07:13.312Z,97.38
2022-12-11T14:09:46.872Z,100.00
2022-12-11T14:12:19.389Z,100.00
2022-12-11T14:14:54.429Z,100.00
2022-12-11T14:17:26.834Z,100.00
2022-12-11T14:19:57.024Z,100.00
2022-12-11T14:22:31.939Z,100.00
2022-12-11T14:25:04.004Z,100.00
2022-12-11T14:27:32.668Z,100.00
2022-12-11T14:30:12.502Z,100.00
2022-12-11T14:32:46.220Z,100.00
2022-12-11T14:35:25.161Z,100.00
2022-12-11T14:37:55.385Z,100.00
2022-12-11T14:40:29.679Z,100.00
2022-12-11T14:43:03.084Z,100.00
2022-12-11T14:45:35.724Z,100.00
2022-12-11T14:48:11.291Z,100.00
2022-12-11T14:50:46.454Z,100.00
2022-12-11T14:53:18.633Z,100.00
2022-12-11T14:55:50.611Z,100.00
2022-12-11T14:58:22.526Z,100.00
2022-12-11T15:00:58.627Z,100.00
2022-12-11T15:03:33.446Z,100.00
2022-12-11T15:06:02.961Z,100.00
2022-12-11T15:08:33.491Z,100.00
2022-12-11T15:11:07.872Z,100.00
2022-12-11T15:13:40.158Z,100.00
2022-12-11T15:16:10.128Z,100.00
2022-12-11T15:18:42.509Z,100.00
2022-12-11T15:21:13.225Z,100.00
2022-12-11T15:23:52.350Z,100.00
2022-12-11T15:26:33.864Z,100.00
2022-12-11T15:29:04.131Z,100.00
2022-12-11T15:31:35.382Z,100.00
2022-12-11T15:34:03.964Z,100.00
2022-12-11T15:36:34.716Z,100.00
2022-12-11T15:39:09.888Z,100.00
2022-12-11T15:41:43.228Z,100.00
2022-12-11T15:44:19.345Z,100.00
2022-12-11T15:46:47.865Z,100.00
2022-12-11T15:49:16.393Z,100.00
2022-12-11T15:51:44.954Z,100.00
2022-12-11T15:54:13.522Z,100.00
2022-12-11T15:56:43.383Z,100.00
2022-12-11T15:59:12.815Z,100.00
2022-12-11T16:01:41.391Z,100.00
2022-12-11T16:04:10.060Z,100.00
2022-12-11T16:06:38.498Z,100.00
2022-12-11T16:09:06.949Z,100.00
2022-12-11T16:11:35.343Z,100.00
2022-12-11T16:14:05.088Z,100.00
2022-12-11T16:16:35.762Z,100.00
2022-12-11T16:19:04.231Z,100.00
2022-12-11T16:21:32.602Z,100.00
2022-12-11T16:24:01.233Z,100.00
2022-12-11T16:26:29.698Z,100.00
2022-12-11T16:28:58.312Z,100.00
2022-12-11T16:31:28.825Z,100.00
2022-12-11T16:33:57.431Z,100.00
2022-12-11T16:36:26.102Z,100.00
2022-12-11T16:38:54.591Z,100.00
2022-12-11T16:41:23.764Z,100.00
2022-12-11T16:43:52.600Z,100.00
2022-12-11T16:46:22.254Z,100.00
2022-12-11T16:48:52.059Z,100.00
2022-12-11T16:51:20.580Z,100.00
2022-12-11T16:53:49.059Z,100.00
2022-12-11T16:56:17.561Z,100.00
2022-12-11T16:58:47.521Z,100.00
2022-12-11T17:01:16.660Z,100.00
2022-12-11T17:03:47.638Z,100.00
2022-12-11T17:06:23.440Z,100.00
2022-12-11T17:08:52.552Z,100.00
2022-12-11T17:11:22.982Z,100.00
2022-12-11T17:13:55.064Z,100.00
2022-12-11T17:16:26.195Z,100.00
2022-12-11T17:18:54.865Z,100.00
2022-12-11T17:21:25.105Z,100.00
2022-12-11T17:23:53.639Z,100.00
2022-12-11T17:26:22.165Z,100.00
2022-12-11T17:28:50.498Z,100.00
2022-12-11T17:31:20.312Z,100.00
2022-12-11T17:33:49.571Z,100.00
2022-12-11T17:36:20.957Z,100.00
2022-12-11T17:38:50.880Z,100.00
2022-12-11T17:41:21.177Z,100.00
2022-12-11T17:43:50.758Z,100.00
2022-12-11T17:46:19.749Z,100.00
2022-12-11T17:48:48.570Z,100.00
2022-12-11T17:51:23.899Z,100.00
2022-12-11T17:53:57.136Z,100.00
2022-12-11T17:56:26.453Z,100.00
2022-12-11T17:58:54.896Z,100.00
2022-12-11T18:01:23.387Z,100.00
2022-12-11T18:03:52.060Z,100.00
2022-12-11T18:06:22.918Z,100.00
2022-12-11T18:08:54.830Z,100.00
2022-12-11T18:11:24.871Z,100.00
2022-12-11T18:13:56.076Z,100.00
2022-12-11T18:16:26.995Z,100.00
2022-12-11T18:18:56.445Z,100.00
2022-12-11T18:21:27.144Z,100.00
2022-12-11T18:23:56.036Z,100.00
2022-12-11T18:26:26.597Z,100.00
2022-12-11T18:28:55.554Z,100.00
2022-12-11T18:31:24.947Z,100.00
2022-12-11T18:33:53.865Z,100.00
2022-12-11T18:36:23.697Z,100.00
2022-12-11T18:38:52.417Z,100.00
2022-12-11T18:41:21.445Z,100.00
2022-12-11T18:43:51.617Z,100.00
2022-12-11T18:46:22.383Z,100.00
2022-12-11T18:48:51.124Z,100.00
2022-12-11T18:51:23.649Z,100.00
2022-12-11T18:53:53.579Z,100.00
2022-12-11T18:56:24.030Z,100.00
2022-12-11T18:58:54.100Z,100.00
2022-12-11T19:01:26.535Z,100.00
2022-12-11T19:04:02.031Z,100.00
2022-12-11T19:06:33.376Z,100.00
2022-12-11T19:09:03.392Z,100.00
2022-12-11T19:11:34.666Z,100.00
2022-12-11T19:14:06.198Z,100.00
2022-12-11T19:16:37.741Z,100.00
2022-12-11T19:19:10.781Z,100.00
2022-12-11T19:21:39.802Z,100.00
2022-12-11T19:24:10.450Z,100.00
2022-12-11T19:26:39.872Z,100.00
2022-12-11T19:29:10.338Z,100.00
2022-12-11T19:31:39.508Z,100.00
2022-12-11T19:34:08.325Z,100.00
2022-12-11T19:36:37.314Z,100.00
2022-12-11T19:39:12.578Z,100.00
2022-12-11T19:41:41.672Z,100.00
2022-12-11T19:44:12.020Z,100.00
2022-12-11T19:46:40.995Z,100.00
2022-12-11T19:49:12.361Z,100.00
2022-12-11T19:51:43.138Z,100.00
2022-12-11T19:54:14.786Z,100.00
2022-12-11T19:56:44.276Z,100.00
2022-12-11T19:59:17.286Z,100.00
2022-12-11T20:01:47.948Z,100.00
2022-12-11T20:04:17.833Z,100.00
2022-12-11T20:06:48.002Z,100.00
2022-12-11T20:09:18.046Z,100.00
2022-12-11T20:11:49.931Z,100.00
2022-12-11T20:14:25.061Z,100.00
2022-12-11T20:17:13.868Z,100.00
2022-12-11T20:19:43.340Z,100.00
2022-12-11T20:22:12.307Z,100.00
2022-12-11T20:24:41.178Z,100.00
2022-12-11T20:27:12.381Z,100.00
2022-12-11T20:29:42.446Z,100.00
2022-12-11T20:32:12.481Z,100.00
2022-12-11T20:34:41.391Z,100.00
2022-12-11T20:37:10.043Z,100.00
2022-12-11T20:39:38.992Z,100.00
2022-12-11T20:42:10.389Z,100.00
2022-12-11T20:44:42.708Z,100.00
2022-12-11T20:47:19.903Z,100.00
2022-12-11T20:49:49.356Z,100.00
2022-12-11T20:52:20.071Z,100.00
2022-12-11T20:54:48.968Z,100.00
2022-12-11T20:57:17.687Z,100.00
2022-12-11T20:59:46.475Z,100.00
2022-12-11T21:02:16.668Z,100.00
2022-12-11T21:04:45.417Z,100.00
2022-12-11T21:07:14.214Z,100.00
2022-12-11T21:09:43.274Z,100.00
2022-12-11T21:12:11.940Z,100.00
2022-12-11T21:14:40.527Z,100.00
2022-12-11T21:17:09.096Z,100.00
2022-12-11T21:19:39.000Z,100.00
2022-12-11T21:22:08.150Z,100.00
2022-12-11T21:24:36.784Z,100.00
2022-12-11T21:27:05.452Z,100.00
2022-12-11T21:29:34.467Z,100.00
2022-12-11T21:32:03.085Z,100.00
2022-12-11T21:34:31.952Z,100.00
2022-12-11T21:41:33.972Z,100.00
2022-12-11T21:48:17.259Z,100.00
2022-12-11T21:50:45.686Z,100.00
2022-12-11T21:53:14.135Z,100.00
2022-12-11T21:55:43.264Z,100.00
2022-12-11T21:58:13.178Z,100.00
2022-12-11T22:00:41.807Z,100.00
2022-12-11T22:03:10.302Z,100.00
2022-12-11T22:05:38.687Z,100.00
2022-12-11T22:08:08.169Z,100.00
2022-12-11T22:10:36.881Z,100.00
2022-12-11T22:13:05.332Z,100.00
2022-12-11T22:15:35.278Z,100.00
2022-12-11T22:18:03.800Z,100.00
2022-12-11T22:20:32.873Z,100.00
2022-12-11T22:23:01.478Z,100.00
2022-12-11T22:25:30.335Z,100.00
2022-12-11T22:27:58.985Z,100.00
2022-12-11T22:30:27.528Z,100.00
2022-12-11T22:32:57.522Z,100.00
2022-12-11T22:35:27.493Z,100.00
2022-12-11T22:37:56.381Z,100.00
2022-12-11T22:40:25.709Z,100.00
2022-12-11T22:42:54.121Z,100.00
2022-12-11T22:45:24.224Z,100.00
2022-12-11T22:47:52.733Z,100.00
2022-12-11T22:50:22.592Z,100.00
2022-12-11T22:52:50.999Z,100.00
2022-12-11T22:55:19.681Z,100.00
2022-12-11T22:57:48.039Z,100.00
2022-12-11T23:00:17.339Z,100.00
2022-12-11T23:02:46.298Z,100.00
2022-12-11T23:05:15.046Z,100.00
2022-12-11T23:07:45.765Z,100.00
2022-12-11T23:10:14.328Z,100.00
2022-12-11T23:12:44.622Z,100.00
2022-12-11T23:15:13.328Z,100.00
2022-12-11T23:17:41.958Z,100.00
2022-12-11T23:20:11.350Z,100.00
2022-12-11T23:22:39.846Z,100.00
2022-12-11T23:25:13.791Z,100.00
2022-12-11T23:27:42.401Z,100.00
2022-12-11T23:30:12.091Z,100.00
2022-12-11T23:32:40.592Z,100.00
2022-12-11T23:35:10.207Z,100.00
2022-12-11T23:37:39.399Z,100.00
2022-12-11T23:40:10.722Z,100.00
2022-12-11T23:42:39.171Z,100.00
2022-12-11T23:45:08.560Z,100.00
2022-12-11T23:47:37.010Z,100.00
2022-12-11T23:50:06.060Z,100.00
2022-12-11T23:52:34.494Z,100.00
2022-12-11T23:55:02.989Z,100.00
2022-12-11T23:57:32.811Z,100.00
